sensor_id;sensor_type;location;lat;lon;timestamp;P1;durP1;ratioP1;P2;durP2;ratioP2
3993;SDS011;2011;48.238;13.948;2023-02-04T00:00:00;4.87;;;1.90;;
3993;SDS011;2011;48.238;13.948;2023-02-04T00:02:27;11.00;;;2.30;;
3993;SDS011;2011;48.238;13.948;2023-02-04T00:04:54;4.53;;;2.00;;
3993;SDS011;2011;48.238;13.948;2023-02-04T00:07:23;6.53;;;2.07;;
3993;SDS011;2011;48.238;13.948;2023-02-04T00:09:50;9.23;;;1.70;;
3993;SDS011;2011;48.238;13.948;2023-02-04T00:12:17;10.23;;;2.23;;
3993;SDS011;2011;48.238;13.948;2023-02-04T00:14:44;5.87;;;1.63;;
3993;SDS011;2011;48.238;13.948;2023-02-04T00:17:11;10.03;;;2.33;;
3993;SDS011;2011;48.238;13.948;2023-02-04T00:19:38;4.77;;;1.80;;
3993;SDS011;2011;48.238;13.948;2023-02-04T00:22:05;8.87;;;2.30;;
3993;SDS011;2011;48.238;13.948;2023-02-04T00:24:34;7.97;;;2.13;;
3993;SDS011;2011;48.238;13.948;2023-02-04T00:27:02;7.90;;;1.57;;
3993;SDS011;2011;48.238;13.948;2023-02-04T00:29:30;3.47;;;1.63;;
3993;SDS011;2011;48.238;13.948;2023-02-04T00:31:57;8.10;;;2.10;;
3993;SDS011;2011;48.238;13.948;2023-02-04T00:34:24;12.13;;;2.80;;
3993;SDS011;2011;48.238;13.948;2023-02-04T00:36:51;4.97;;;1.93;;
3993;SDS011;2011;48.238;13.948;2023-02-04T00:39:18;9.00;;;2.00;;
3993;SDS011;2011;48.238;13.948;2023-02-04T00:41:47;9.77;;;2.00;;
3993;SDS011;2011;48.238;13.948;2023-02-04T00:44:13;11.67;;;1.80;;
3993;SDS011;2011;48.238;13.948;2023-02-04T00:46:40;13.10;;;2.40;;
3993;SDS011;2011;48.238;13.948;2023-02-04T00:49:08;10.33;;;2.27;;
3993;SDS011;2011;48.238;13.948;2023-02-04T00:51:36;11.97;;;2.20;;
3993;SDS011;2011;48.238;13.948;2023-02-04T00:54:04;12.07;;;2.43;;
3993;SDS011;2011;48.238;13.948;2023-02-04T00:56:32;6.60;;;2.20;;
3993;SDS011;2011;48.238;13.948;2023-02-04T00:59:01;10.73;;;2.23;;
3993;SDS011;2011;48.238;13.948;2023-02-04T01:01:28;7.70;;;2.17;;
3993;SDS011;2011;48.238;13.948;2023-02-04T01:03:55;12.73;;;2.90;;
3993;SDS011;2011;48.238;13.948;2023-02-04T01:06:22;8.20;;;2.07;;
3993;SDS011;2011;48.238;13.948;2023-02-04T01:08:49;8.00;;;2.10;;
3993;SDS011;2011;48.238;13.948;2023-02-04T01:11:16;11.80;;;2.60;;
3993;SDS011;2011;48.238;13.948;2023-02-04T01:13:44;8.07;;;1.80;;
3993;SDS011;2011;48.238;13.948;2023-02-04T01:16:12;9.37;;;2.20;;
3993;SDS011;2011;48.238;13.948;2023-02-04T01:18:40;13.73;;;2.40;;
3993;SDS011;2011;48.238;13.948;2023-02-04T01:21:07;9.13;;;2.10;;
3993;SDS011;2011;48.238;13.948;2023-02-04T01:23:34;10.17;;;2.07;;
3993;SDS011;2011;48.238;13.948;2023-02-04T01:26:01;5.90;;;2.20;;
3993;SDS011;2011;48.238;13.948;2023-02-04T01:28:28;4.50;;;2.10;;
3993;SDS011;2011;48.238;13.948;2023-02-04T01:30:55;5.77;;;1.80;;
3993;SDS011;2011;48.238;13.948;2023-02-04T01:33:23;10.00;;;2.53;;
3993;SDS011;2011;48.238;13.948;2023-02-04T01:35:50;8.03;;;1.87;;
3993;SDS011;2011;48.238;13.948;2023-02-04T01:38:17;12.33;;;2.37;;
3993;SDS011;2011;48.238;13.948;2023-02-04T01:40:44;7.53;;;2.27;;
3993;SDS011;2011;48.238;13.948;2023-02-04T01:43:12;13.47;;;2.43;;
3993;SDS011;2011;48.238;13.948;2023-02-04T01:45:39;9.50;;;2.43;;
3993;SDS011;2011;48.238;13.948;2023-02-04T01:48:06;11.60;;;2.20;;
3993;SDS011;2011;48.238;13.948;2023-02-04T01:50:34;8.13;;;1.90;;
3993;SDS011;2011;48.238;13.948;2023-02-04T01:53:01;7.87;;;2.23;;
3993;SDS011;2011;48.238;13.948;2023-02-04T01:55:29;6.63;;;1.70;;
3993;SDS011;2011;48.238;13.948;2023-02-04T01:57:57;11.53;;;2.10;;
3993;SDS011;2011;48.238;13.948;2023-02-04T02:00:27;6.60;;;2.00;;
3993;SDS011;2011;48.238;13.948;2023-02-04T02:02:55;15.53;;;2.53;;
3993;SDS011;2011;48.238;13.948;2023-02-04T02:05:24;7.00;;;1.83;;
3993;SDS011;2011;48.238;13.948;2023-02-04T02:07:54;11.03;;;2.33;;
3993;SDS011;2011;48.238;13.948;2023-02-04T02:10:23;17.33;;;3.00;;
3993;SDS011;2011;48.238;13.948;2023-02-04T02:12:50;7.47;;;2.37;;
3993;SDS011;2011;48.238;13.948;2023-02-04T02:15:19;7.03;;;2.50;;
3993;SDS011;2011;48.238;13.948;2023-02-04T02:17:47;8.30;;;1.97;;
3993;SDS011;2011;48.238;13.948;2023-02-04T02:20:16;6.67;;;2.50;;
3993;SDS011;2011;48.238;13.948;2023-02-04T02:22:48;10.93;;;2.57;;
3993;SDS011;2011;48.238;13.948;2023-02-04T02:25:27;9.50;;;2.53;;
3993;SDS011;2011;48.238;13.948;2023-02-04T02:27:54;11.73;;;2.00;;
3993;SDS011;2011;48.238;13.948;2023-02-04T02:30:22;11.43;;;2.73;;
3993;SDS011;2011;48.238;13.948;2023-02-04T02:32:49;15.60;;;3.07;;
3993;SDS011;2011;48.238;13.948;2023-02-04T02:35:17;24.13;;;2.93;;
3993;SDS011;2011;48.238;13.948;2023-02-04T02:37:45;9.70;;;2.63;;
3993;SDS011;2011;48.238;13.948;2023-02-04T02:40:12;11.67;;;2.57;;
3993;SDS011;2011;48.238;13.948;2023-02-04T02:42:41;16.13;;;2.73;;
3993;SDS011;2011;48.238;13.948;2023-02-04T02:45:11;11.13;;;2.70;;
3993;SDS011;2011;48.238;13.948;2023-02-04T02:47:42;8.57;;;2.13;;
3993;SDS011;2011;48.238;13.948;2023-02-04T02:50:09;10.43;;;2.60;;
3993;SDS011;2011;48.238;13.948;2023-02-04T02:52:41;13.50;;;2.30;;
3993;SDS011;2011;48.238;13.948;2023-02-04T02:55:11;14.33;;;2.30;;
3993;SDS011;2011;48.238;13.948;2023-02-04T02:57:42;12.50;;;2.83;;
3993;SDS011;2011;48.238;13.948;2023-02-04T03:00:14;10.27;;;2.50;;
3993;SDS011;2011;48.238;13.948;2023-02-04T03:02:44;13.20;;;2.30;;
3993;SDS011;2011;48.238;13.948;2023-02-04T03:05:20;8.93;;;2.30;;
3993;SDS011;2011;48.238;13.948;2023-02-04T03:07:47;11.40;;;2.43;;
3993;SDS011;2011;48.238;13.948;2023-02-04T03:10:14;13.67;;;3.00;;
3993;SDS011;2011;48.238;13.948;2023-02-04T03:12:43;16.73;;;2.93;;
3993;SDS011;2011;48.238;13.948;2023-02-04T03:15:11;8.10;;;2.67;;
3993;SDS011;2011;48.238;13.948;2023-02-04T03:17:39;12.80;;;2.20;;
3993;SDS011;2011;48.238;13.948;2023-02-04T03:20:07;11.83;;;2.23;;
3993;SDS011;2011;48.238;13.948;2023-02-04T03:22:35;16.67;;;2.90;;
3993;SDS011;2011;48.238;13.948;2023-02-04T03:25:02;9.30;;;2.17;;
3993;SDS011;2011;48.238;13.948;2023-02-04T03:27:29;8.73;;;2.13;;
3993;SDS011;2011;48.238;13.948;2023-02-04T03:29:57;7.13;;;1.80;;
3993;SDS011;2011;48.238;13.948;2023-02-04T03:32:24;13.70;;;3.13;;
3993;SDS011;2011;48.238;13.948;2023-02-04T03:34:51;8.23;;;2.37;;
3993;SDS011;2011;48.238;13.948;2023-02-04T03:37:19;26.13;;;2.30;;
3993;SDS011;2011;48.238;13.948;2023-02-04T03:39:46;6.27;;;1.50;;
3993;SDS011;2011;48.238;13.948;2023-02-04T03:42:13;9.70;;;2.10;;
3993;SDS011;2011;48.238;13.948;2023-02-04T03:44:40;15.63;;;2.40;;
3993;SDS011;2011;48.238;13.948;2023-02-04T03:47:08;7.40;;;1.60;;
3993;SDS011;2011;48.238;13.948;2023-02-04T03:49:35;12.43;;;1.83;;
3993;SDS011;2011;48.238;13.948;2023-02-04T03:52:03;19.80;;;2.40;;
3993;SDS011;2011;48.238;13.948;2023-02-04T03:54:30;6.10;;;2.10;;
3993;SDS011;2011;48.238;13.948;2023-02-04T03:56:57;11.77;;;2.20;;
3993;SDS011;2011;48.238;13.948;2023-02-04T03:59:24;8.60;;;1.90;;
3993;SDS011;2011;48.238;13.948;2023-02-04T04:01:51;10.43;;;2.33;;
3993;SDS011;2011;48.238;13.948;2023-02-04T04:04:19;5.90;;;1.63;;
3993;SDS011;2011;48.238;13.948;2023-02-04T04:06:46;8.67;;;2.20;;
3993;SDS011;2011;48.238;13.948;2023-02-04T04:09:13;11.57;;;2.50;;
3993;SDS011;2011;48.238;13.948;2023-02-04T04:11:40;16.30;;;1.90;;
3993;SDS011;2011;48.238;13.948;2023-02-04T04:14:08;10.83;;;2.03;;
3993;SDS011;2011;48.238;13.948;2023-02-04T04:16:35;10.57;;;1.70;;
3993;SDS011;2011;48.238;13.948;2023-02-04T04:19:02;17.87;;;2.20;;
3993;SDS011;2011;48.238;13.948;2023-02-04T04:21:30;16.63;;;2.40;;
3993;SDS011;2011;48.238;13.948;2023-02-04T04:23:57;9.47;;;1.57;;
3993;SDS011;2011;48.238;13.948;2023-02-04T04:26:24;5.53;;;1.50;;
3993;SDS011;2011;48.238;13.948;2023-02-04T04:28:51;9.90;;;1.80;;
3993;SDS011;2011;48.238;13.948;2023-02-04T04:31:18;11.70;;;2.10;;
3993;SDS011;2011;48.238;13.948;2023-02-04T04:33:45;14.27;;;2.30;;
3993;SDS011;2011;48.238;13.948;2023-02-04T04:36:12;5.33;;;1.33;;
3993;SDS011;2011;48.238;13.948;2023-02-04T04:38:41;10.23;;;2.40;;
3993;SDS011;2011;48.238;13.948;2023-02-04T04:41:08;9.30;;;2.00;;
3993;SDS011;2011;48.238;13.948;2023-02-04T04:43:35;10.50;;;2.17;;
3993;SDS011;2011;48.238;13.948;2023-02-04T04:46:02;16.33;;;2.40;;
3993;SDS011;2011;48.238;13.948;2023-02-04T04:48:29;12.27;;;1.60;;
3993;SDS011;2011;48.238;13.948;2023-02-04T04:50:56;6.47;;;2.07;;
3993;SDS011;2011;48.238;13.948;2023-02-04T04:53:23;6.57;;;1.70;;
3993;SDS011;2011;48.238;13.948;2023-02-04T04:55:52;8.57;;;1.87;;
3993;SDS011;2011;48.238;13.948;2023-02-04T04:58:18;9.27;;;1.80;;
3993;SDS011;2011;48.238;13.948;2023-02-04T05:00:46;7.73;;;1.90;;
3993;SDS011;2011;48.238;13.948;2023-02-04T05:03:13;5.70;;;1.57;;
3993;SDS011;2011;48.238;13.948;2023-02-04T05:05:40;11.93;;;2.00;;
3993;SDS011;2011;48.238;13.948;2023-02-04T05:08:08;5.90;;;1.37;;
3993;SDS011;2011;48.238;13.948;2023-02-04T05:10:38;10.83;;;1.50;;
3993;SDS011;2011;48.238;13.948;2023-02-04T05:13:06;12.93;;;2.50;;
3993;SDS011;2011;48.238;13.948;2023-02-04T05:15:33;7.57;;;1.83;;
3993;SDS011;2011;48.238;13.948;2023-02-04T05:18:01;7.30;;;1.73;;
3993;SDS011;2011;48.238;13.948;2023-02-04T05:20:28;9.63;;;1.97;;
3993;SDS011;2011;48.238;13.948;2023-02-04T05:22:55;8.13;;;2.10;;
3993;SDS011;2011;48.238;13.948;2023-02-04T05:25:25;9.60;;;1.80;;
3993;SDS011;2011;48.238;13.948;2023-02-04T05:27:52;10.90;;;2.10;;
3993;SDS011;2011;48.238;13.948;2023-02-04T05:30:21;6.97;;;1.60;;
3993;SDS011;2011;48.238;13.948;2023-02-04T05:32:48;9.23;;;1.97;;
3993;SDS011;2011;48.238;13.948;2023-02-04T05:35:15;6.63;;;1.90;;
3993;SDS011;2011;48.238;13.948;2023-02-04T05:37:42;10.70;;;1.60;;
3993;SDS011;2011;48.238;13.948;2023-02-04T05:40:09;9.43;;;2.70;;
3993;SDS011;2011;48.238;13.948;2023-02-04T05:42:36;8.37;;;2.20;;
3993;SDS011;2011;48.238;13.948;2023-02-04T05:45:04;7.77;;;1.70;;
3993;SDS011;2011;48.238;13.948;2023-02-04T05:47:32;20.40;;;2.50;;
3993;SDS011;2011;48.238;13.948;2023-02-04T05:50:00;16.30;;;2.47;;
3993;SDS011;2011;48.238;13.948;2023-02-04T05:52:27;11.10;;;2.80;;
3993;SDS011;2011;48.238;13.948;2023-02-04T05:54:54;5.40;;;1.90;;
3993;SDS011;2011;48.238;13.948;2023-02-04T05:57:21;11.10;;;1.70;;
3993;SDS011;2011;48.238;13.948;2023-02-04T05:59:48;10.37;;;1.87;;
3993;SDS011;2011;48.238;13.948;2023-02-04T06:02:15;4.63;;;2.33;;
3993;SDS011;2011;48.238;13.948;2023-02-04T06:04:45;4.93;;;1.60;;
3993;SDS011;2011;48.238;13.948;2023-02-04T06:07:12;13.17;;;2.10;;
3993;SDS011;2011;48.238;13.948;2023-02-04T06:09:39;12.30;;;2.27;;
3993;SDS011;2011;48.238;13.948;2023-02-04T06:12:06;9.47;;;1.93;;
3993;SDS011;2011;48.238;13.948;2023-02-04T06:14:34;12.90;;;1.80;;
3993;SDS011;2011;48.238;13.948;2023-02-04T06:17:01;11.37;;;1.73;;
3993;SDS011;2011;48.238;13.948;2023-02-04T06:19:28;3.40;;;1.60;;
3993;SDS011;2011;48.238;13.948;2023-02-04T06:21:57;6.30;;;1.77;;
3993;SDS011;2011;48.238;13.948;2023-02-04T06:24:24;10.73;;;1.70;;
3993;SDS011;2011;48.238;13.948;2023-02-04T06:26:51;10.60;;;1.90;;
3993;SDS011;2011;48.238;13.948;2023-02-04T06:29:18;5.90;;;1.50;;
3993;SDS011;2011;48.238;13.948;2023-02-04T06:31:45;6.63;;;2.00;;
3993;SDS011;2011;48.238;13.948;2023-02-04T06:34:13;11.20;;;1.77;;
3993;SDS011;2011;48.238;13.948;2023-02-04T06:36:40;5.57;;;1.40;;
3993;SDS011;2011;48.238;13.948;2023-02-04T06:39:08;7.17;;;1.80;;
3993;SDS011;2011;48.238;13.948;2023-02-04T06:41:36;4.73;;;1.57;;
3993;SDS011;2011;48.238;13.948;2023-02-04T06:44:03;7.47;;;1.70;;
3993;SDS011;2011;48.238;13.948;2023-02-04T06:46:30;6.10;;;1.90;;
3993;SDS011;2011;48.238;13.948;2023-02-04T06:48:57;11.63;;;2.13;;
3993;SDS011;2011;48.238;13.948;2023-02-04T06:51:24;8.17;;;1.47;;
3993;SDS011;2011;48.238;13.948;2023-02-04T06:53:51;2.60;;;1.37;;
3993;SDS011;2011;48.238;13.948;2023-02-04T06:56:20;3.73;;;1.27;;
3993;SDS011;2011;48.238;13.948;2023-02-04T06:58:47;2.10;;;1.30;;
3993;SDS011;2011;48.238;13.948;2023-02-04T07:01:14;1.43;;;0.90;;
3993;SDS011;2011;48.238;13.948;2023-02-04T07:03:41;1.20;;;0.93;;
3993;SDS011;2011;48.238;13.948;2023-02-04T07:06:08;0.90;;;0.83;;
3993;SDS011;2011;48.238;13.948;2023-02-04T07:08:35;1.00;;;0.80;;
3993;SDS011;2011;48.238;13.948;2023-02-04T07:11:02;2.70;;;1.20;;
3993;SDS011;2011;48.238;13.948;2023-02-04T07:13:30;1.70;;;1.00;;
3993;SDS011;2011;48.238;13.948;2023-02-04T07:15:57;1.00;;;0.90;;
3993;SDS011;2011;48.238;13.948;2023-02-04T07:18:24;1.30;;;1.08;;
3993;SDS011;2011;48.238;13.948;2023-02-04T07:20:51;2.80;;;1.98;;
3993;SDS011;2011;48.238;13.948;2023-02-04T07:23:18;4.28;;;1.40;;
3993;SDS011;2011;48.238;13.948;2023-02-04T07:25:46;3.47;;;1.87;;
3993;SDS011;2011;48.238;13.948;2023-02-04T07:28:13;1.65;;;1.25;;
3993;SDS011;2011;48.238;13.948;2023-02-04T07:30:41;1.73;;;1.27;;
3993;SDS011;2011;48.238;13.948;2023-02-04T07:33:08;1.83;;;1.03;;
3993;SDS011;2011;48.238;13.948;2023-02-04T07:35:35;2.83;;;1.33;;
3993;SDS011;2011;48.238;13.948;2023-02-04T07:38:03;3.63;;;1.10;;
3993;SDS011;2011;48.238;13.948;2023-02-04T07:40:30;2.50;;;1.50;;
3993;SDS011;2011;48.238;13.948;2023-02-04T07:42:57;4.80;;;2.23;;
3993;SDS011;2011;48.238;13.948;2023-02-04T07:45:24;3.67;;;1.87;;
3993;SDS011;2011;48.238;13.948;2023-02-04T07:47:52;4.40;;;2.50;;
3993;SDS011;2011;48.238;13.948;2023-02-04T07:50:19;15.07;;;2.73;;
3993;SDS011;2011;48.238;13.948;2023-02-04T07:52:46;5.57;;;2.23;;
3993;SDS011;2011;48.238;13.948;2023-02-04T07:55:13;4.97;;;2.10;;
3993;SDS011;2011;48.238;13.948;2023-02-04T07:57:41;4.53;;;2.20;;
3993;SDS011;2011;48.238;13.948;2023-02-04T08:00:08;3.60;;;2.03;;
3993;SDS011;2011;48.238;13.948;2023-02-04T08:02:38;3.60;;;2.00;;
3993;SDS011;2011;48.238;13.948;2023-02-04T08:05:07;2.67;;;1.63;;
3993;SDS011;2011;48.238;13.948;2023-02-04T08:07:34;6.30;;;2.57;;
3993;SDS011;2011;48.238;13.948;2023-02-04T08:10:02;4.20;;;1.83;;
3993;SDS011;2011;48.238;13.948;2023-02-04T08:12:29;3.60;;;2.13;;
3993;SDS011;2011;48.238;13.948;2023-02-04T08:14:56;8.67;;;3.03;;
3993;SDS011;2011;48.238;13.948;2023-02-04T08:17:23;4.40;;;2.17;;
3993;SDS011;2011;48.238;13.948;2023-02-04T08:19:50;4.43;;;1.90;;
3993;SDS011;2011;48.238;13.948;2023-02-04T08:22:18;1.20;;;1.00;;
3993;SDS011;2011;48.238;13.948;2023-02-04T08:24:49;2.23;;;1.30;;
3993;SDS011;2011;48.238;13.948;2023-02-04T08:27:16;0.80;;;0.80;;
3993;SDS011;2011;48.238;13.948;2023-02-04T08:29:43;1.27;;;1.10;;
3993;SDS011;2011;48.238;13.948;2023-02-04T08:32:10;1.63;;;1.20;;
3993;SDS011;2011;48.238;13.948;2023-02-04T08:34:38;1.37;;;1.10;;
3993;SDS011;2011;48.238;13.948;2023-02-04T08:37:05;1.53;;;1.10;;
3993;SDS011;2011;48.238;13.948;2023-02-04T08:39:34;1.50;;;0.90;;
3993;SDS011;2011;48.238;13.948;2023-02-04T08:42:02;1.27;;;1.03;;
3993;SDS011;2011;48.238;13.948;2023-02-04T08:44:29;0.90;;;0.77;;
3993;SDS011;2011;48.238;13.948;2023-02-04T08:46:56;1.40;;;0.97;;
3993;SDS011;2011;48.238;13.948;2023-02-04T08:49:23;2.13;;;1.10;;
3993;SDS011;2011;48.238;13.948;2023-02-04T08:51:50;3.10;;;0.80;;
3993;SDS011;2011;48.238;13.948;2023-02-04T08:54:17;1.00;;;0.73;;
3993;SDS011;2011;48.238;13.948;2023-02-04T08:56:45;1.00;;;0.90;;
3993;SDS011;2011;48.238;13.948;2023-02-04T08:59:12;2.90;;;1.00;;
3993;SDS011;2011;48.238;13.948;2023-02-04T09:01:39;1.10;;;0.77;;
3993;SDS011;2011;48.238;13.948;2023-02-04T09:04:06;2.23;;;0.90;;
3993;SDS011;2011;48.238;13.948;2023-02-04T09:06:33;1.20;;;0.83;;
3993;SDS011;2011;48.238;13.948;2023-02-04T09:09:00;0.80;;;0.70;;
3993;SDS011;2011;48.238;13.948;2023-02-04T09:11:27;1.60;;;0.90;;
3993;SDS011;2011;48.238;13.948;2023-02-04T09:13:55;8.67;;;0.90;;
3993;SDS011;2011;48.238;13.948;2023-02-04T09:16:22;1.20;;;0.90;;
3993;SDS011;2011;48.238;13.948;2023-02-04T09:18:49;1.50;;;1.00;;
3993;SDS011;2011;48.238;13.948;2023-02-04T09:21:15;1.00;;;0.83;;
3993;SDS011;2011;48.238;13.948;2023-02-04T09:23:42;1.73;;;1.07;;
3993;SDS011;2011;48.238;13.948;2023-02-04T09:26:10;0.80;;;0.73;;
3993;SDS011;2011;48.238;13.948;2023-02-04T09:28:37;1.43;;;1.17;;
3993;SDS011;2011;48.238;13.948;2023-02-04T09:31:06;1.63;;;1.00;;
3993;SDS011;2011;48.238;13.948;2023-02-04T09:33:33;1.03;;;0.90;;
3993;SDS011;2011;48.238;13.948;2023-02-04T09:36:01;1.10;;;0.80;;
3993;SDS011;2011;48.238;13.948;2023-02-04T09:38:28;1.10;;;0.80;;
3993;SDS011;2011;48.238;13.948;2023-02-04T09:40:56;2.23;;;1.20;;
3993;SDS011;2011;48.238;13.948;2023-02-04T09:43:26;1.33;;;0.80;;
3993;SDS011;2011;48.238;13.948;2023-02-04T09:45:55;1.10;;;0.90;;
3993;SDS011;2011;48.238;13.948;2023-02-04T09:48:24;1.33;;;0.80;;
3993;SDS011;2011;48.238;13.948;2023-02-04T09:50:52;2.20;;;0.83;;
3993;SDS011;2011;48.238;13.948;2023-02-04T09:53:28;1.77;;;1.00;;
3993;SDS011;2011;48.238;13.948;2023-02-04T09:55:56;1.37;;;1.17;;
3993;SDS011;2011;48.238;13.948;2023-02-04T09:58:32;1.40;;;1.30;;
3993;SDS011;2011;48.238;13.948;2023-02-04T10:01:07;1.90;;;1.30;;
3993;SDS011;2011;48.238;13.948;2023-02-04T10:03:40;1.43;;;1.30;;
3993;SDS011;2011;48.238;13.948;2023-02-04T10:06:11;1.57;;;1.27;;
3993;SDS011;2011;48.238;13.948;2023-02-04T10:08:38;1.63;;;1.30;;
3993;SDS011;2011;48.238;13.948;2023-02-04T10:11:06;1.53;;;1.40;;
3993;SDS011;2011;48.238;13.948;2023-02-04T10:13:35;4.20;;;1.50;;
3993;SDS011;2011;48.238;13.948;2023-02-04T10:16:09;2.07;;;1.50;;
3993;SDS011;2011;48.238;13.948;2023-02-04T10:18:41;1.73;;;1.30;;
3993;SDS011;2011;48.238;13.948;2023-02-04T10:21:13;1.67;;;1.50;;
3993;SDS011;2011;48.238;13.948;2023-02-04T10:23:43;1.80;;;1.63;;
3993;SDS011;2011;48.238;13.948;2023-02-04T10:26:13;1.73;;;1.50;;
3993;SDS011;2011;48.238;13.948;2023-02-04T10:28:41;1.67;;;1.43;;
3993;SDS011;2011;48.238;13.948;2023-02-04T10:34:12;2.77;;;1.70;;
3993;SDS011;2011;48.238;13.948;2023-02-04T10:36:41;1.70;;;1.27;;
3993;SDS011;2011;48.238;13.948;2023-02-04T10:39:10;1.50;;;1.40;;
3993;SDS011;2011;48.238;13.948;2023-02-04T10:41:43;3.03;;;1.63;;
3993;SDS011;2011;48.238;13.948;2023-02-04T10:44:12;2.57;;;1.80;;
3993;SDS011;2011;48.238;13.948;2023-02-04T10:46:41;1.87;;;1.30;;
3993;SDS011;2011;48.238;13.948;2023-02-04T10:49:17;3.50;;;1.60;;
3993;SDS011;2011;48.238;13.948;2023-02-04T10:51:46;1.47;;;1.30;;
3993;SDS011;2011;48.238;13.948;2023-02-04T10:54:14;1.73;;;1.43;;
3993;SDS011;2011;48.238;13.948;2023-02-04T10:56:58;3.27;;;1.30;;
3993;SDS011;2011;48.238;13.948;2023-02-04T10:59:29;3.40;;;1.50;;
3993;SDS011;2011;48.238;13.948;2023-02-04T11:01:56;2.57;;;1.40;;
3993;SDS011;2011;48.238;13.948;2023-02-04T11:04:26;2.13;;;1.50;;
3993;SDS011;2011;48.238;13.948;2023-02-04T11:06:53;1.70;;;1.43;;
3993;SDS011;2011;48.238;13.948;2023-02-04T11:09:20;1.70;;;1.43;;
3993;SDS011;2011;48.238;13.948;2023-02-04T11:11:48;2.50;;;1.77;;
3993;SDS011;2011;48.238;13.948;2023-02-04T11:14:26;1.43;;;1.33;;
3993;SDS011;2011;48.238;13.948;2023-02-04T11:16:54;1.47;;;1.30;;
3993;SDS011;2011;48.238;13.948;2023-02-04T11:19:34;1.67;;;1.10;;
3993;SDS011;2011;48.238;13.948;2023-02-04T11:22:06;2.07;;;1.40;;
3993;SDS011;2011;48.238;13.948;2023-02-04T11:24:46;2.00;;;1.37;;
3993;SDS011;2011;48.238;13.948;2023-02-04T11:27:20;2.00;;;1.57;;
3993;SDS011;2011;48.238;13.948;2023-02-04T11:29:50;2.20;;;1.47;;
3993;SDS011;2011;48.238;13.948;2023-02-04T11:32:30;1.93;;;1.40;;
3993;SDS011;2011;48.238;13.948;2023-02-04T11:37:54;1.23;;;1.03;;
3993;SDS011;2011;48.238;13.948;2023-02-04T11:40:23;2.17;;;1.50;;
3993;SDS011;2011;48.238;13.948;2023-02-04T11:43:00;1.93;;;1.30;;
3993;SDS011;2011;48.238;13.948;2023-02-04T11:45:30;1.67;;;1.30;;
3993;SDS011;2011;48.238;13.948;2023-02-04T11:47:59;1.23;;;1.13;;
3993;SDS011;2011;48.238;13.948;2023-02-04T11:50:30;1.60;;;1.10;;
3993;SDS011;2011;48.238;13.948;2023-02-04T11:52:59;3.17;;;1.43;;
3993;SDS011;2011;48.238;13.948;2023-02-04T11:55:27;1.20;;;1.10;;
3993;SDS011;2011;48.238;13.948;2023-02-04T11:57:55;2.60;;;1.53;;
3993;SDS011;2011;48.238;13.948;2023-02-04T12:00:23;1.60;;;1.43;;
3993;SDS011;2011;48.238;13.948;2023-02-04T12:02:54;1.87;;;1.50;;
3993;SDS011;2011;48.238;13.948;2023-02-04T12:05:34;1.40;;;1.10;;
3993;SDS011;2011;48.238;13.948;2023-02-04T12:08:08;2.00;;;1.33;;
3993;SDS011;2011;48.238;13.948;2023-02-04T12:10:36;1.20;;;1.10;;
3993;SDS011;2011;48.238;13.948;2023-02-04T12:13:10;1.60;;;1.50;;
3993;SDS011;2011;48.238;13.948;2023-02-04T12:15:41;3.13;;;1.70;;
3993;SDS011;2011;48.238;13.948;2023-02-04T12:18:17;1.90;;;1.30;;
3993;SDS011;2011;48.238;13.948;2023-02-04T12:20:45;2.33;;;1.50;;
3993;SDS011;2011;48.238;13.948;2023-02-04T12:23:12;1.20;;;1.10;;
3993;SDS011;2011;48.238;13.948;2023-02-04T12:25:39;1.60;;;1.33;;
3993;SDS011;2011;48.238;13.948;2023-02-04T12:28:06;2.73;;;1.33;;
3993;SDS011;2011;48.238;13.948;2023-02-04T12:30:33;1.33;;;1.10;;
3993;SDS011;2011;48.238;13.948;2023-02-04T12:33:00;1.53;;;1.20;;
3993;SDS011;2011;48.238;13.948;2023-02-04T12:35:27;1.47;;;1.00;;
3993;SDS011;2011;48.238;13.948;2023-02-04T12:37:55;1.73;;;1.30;;
3993;SDS011;2011;48.238;13.948;2023-02-04T12:40:23;1.40;;;1.10;;
3993;SDS011;2011;48.238;13.948;2023-02-04T12:42:50;1.43;;;1.20;;
3993;SDS011;2011;48.238;13.948;2023-02-04T12:45:17;1.63;;;1.40;;
3993;SDS011;2011;48.238;13.948;2023-02-04T12:47:45;4.80;;;1.30;;
3993;SDS011;2011;48.238;13.948;2023-02-04T12:50:13;1.50;;;1.40;;
3993;SDS011;2011;48.238;13.948;2023-02-04T12:52:46;1.50;;;1.20;;
3993;SDS011;2011;48.238;13.948;2023-02-04T12:55:15;1.70;;;1.30;;
3993;SDS011;2011;48.238;13.948;2023-02-04T12:57:42;2.17;;;1.30;;
3993;SDS011;2011;48.238;13.948;2023-02-04T13:00:10;1.30;;;1.20;;
3993;SDS011;2011;48.238;13.948;2023-02-04T13:02:38;1.63;;;1.27;;
3993;SDS011;2011;48.238;13.948;2023-02-04T13:05:06;1.60;;;1.10;;
3993;SDS011;2011;48.238;13.948;2023-02-04T13:07:34;2.30;;;1.10;;
3993;SDS011;2011;48.238;13.948;2023-02-04T13:10:01;1.23;;;1.00;;
3993;SDS011;2011;48.238;13.948;2023-02-04T13:12:30;1.10;;;1.00;;
3993;SDS011;2011;48.238;13.948;2023-02-04T13:14:57;1.73;;;1.20;;
3993;SDS011;2011;48.238;13.948;2023-02-04T13:17:23;1.90;;;1.20;;
3993;SDS011;2011;48.238;13.948;2023-02-04T13:19:50;1.47;;;1.10;;
3993;SDS011;2011;48.238;13.948;2023-02-04T13:22:17;1.90;;;1.17;;
3993;SDS011;2011;48.238;13.948;2023-02-04T13:24:44;1.10;;;0.90;;
3993;SDS011;2011;48.238;13.948;2023-02-04T13:27:11;1.20;;;1.10;;
3993;SDS011;2011;48.238;13.948;2023-02-04T13:29:40;1.30;;;1.17;;
3993;SDS011;2011;48.238;13.948;2023-02-04T13:32:07;1.53;;;1.10;;
3993;SDS011;2011;48.238;13.948;2023-02-04T13:34:34;1.20;;;0.90;;
3993;SDS011;2011;48.238;13.948;2023-02-04T13:37:01;2.43;;;0.90;;
3993;SDS011;2011;48.238;13.948;2023-02-04T13:39:28;1.80;;;1.00;;
3993;SDS011;2011;48.238;13.948;2023-02-04T13:41:55;2.50;;;1.10;;
3993;SDS011;2011;48.238;13.948;2023-02-04T13:44:22;1.83;;;1.23;;
3993;SDS011;2011;48.238;13.948;2023-02-04T13:46:51;1.00;;;0.90;;
3993;SDS011;2011;48.238;13.948;2023-02-04T13:49:17;1.20;;;1.10;;
3993;SDS011;2011;48.238;13.948;2023-02-04T13:51:45;1.50;;;1.10;;
3993;SDS011;2011;48.238;13.948;2023-02-04T13:54:12;1.23;;;1.10;;
3993;SDS011;2011;48.238;13.948;2023-02-04T13:56:39;1.67;;;1.07;;
3993;SDS011;2011;48.238;13.948;2023-02-04T13:59:06;1.30;;;1.00;;
3993;SDS011;2011;48.238;13.948;2023-02-04T14:01:33;1.00;;;0.90;;
3993;SDS011;2011;48.238;13.948;2023-02-04T14:04:01;1.17;;;0.90;;
3993;SDS011;2011;48.238;13.948;2023-02-04T14:06:28;2.50;;;1.20;;
3993;SDS011;2011;48.238;13.948;2023-02-04T14:08:58;1.90;;;1.07;;
3993;SDS011;2011;48.238;13.948;2023-02-04T14:11:25;1.30;;;1.00;;
3993;SDS011;2011;48.238;13.948;2023-02-04T14:13:52;1.80;;;1.07;;
3993;SDS011;2011;48.238;13.948;2023-02-04T14:16:19;2.50;;;1.20;;
3993;SDS011;2011;48.238;13.948;2023-02-04T14:18:45;1.40;;;1.20;;
3993;SDS011;2011;48.238;13.948;2023-02-04T14:21:14;1.63;;;1.10;;
3993;SDS011;2011;48.238;13.948;2023-02-04T14:23:41;1.20;;;0.90;;
3993;SDS011;2011;48.238;13.948;2023-02-04T14:26:08;1.40;;;0.90;;
3993;SDS011;2011;48.238;13.948;2023-02-04T14:28:34;1.10;;;0.87;;
3993;SDS011;2011;48.238;13.948;2023-02-04T14:31:01;1.63;;;1.00;;
3993;SDS011;2011;48.238;13.948;2023-02-04T14:33:28;2.30;;;1.30;;
3993;SDS011;2011;48.238;13.948;2023-02-04T14:35:55;1.73;;;1.03;;
3993;SDS011;2011;48.238;13.948;2023-02-04T14:38:24;1.10;;;1.00;;
3993;SDS011;2011;48.238;13.948;2023-02-04T14:40:55;1.20;;;1.10;;
3993;SDS011;2011;48.238;13.948;2023-02-04T14:43:23;1.40;;;1.10;;
3993;SDS011;2011;48.238;13.948;2023-02-04T14:45:50;1.43;;;1.23;;
3993;SDS011;2011;48.238;13.948;2023-02-04T14:48:17;1.17;;;0.97;;
3993;SDS011;2011;48.238;13.948;2023-02-04T14:50:44;2.00;;;1.17;;
3993;SDS011;2011;48.238;13.948;2023-02-04T14:53:11;3.17;;;1.07;;
3993;SDS011;2011;48.238;13.948;2023-02-04T14:55:39;1.03;;;0.93;;
3993;SDS011;2011;48.238;13.948;2023-02-04T14:58:06;3.00;;;1.30;;
3993;SDS011;2011;48.238;13.948;2023-02-04T15:00:33;1.90;;;1.10;;
3993;SDS011;2011;48.238;13.948;2023-02-04T15:02:59;1.97;;;1.27;;
3993;SDS011;2011;48.238;13.948;2023-02-04T15:05:26;2.10;;;1.27;;
3993;SDS011;2011;48.238;13.948;2023-02-04T15:07:53;1.77;;;1.10;;